createdAt,value
2022-08-14T00:02:24.473Z,6.07
2022-08-14T00:04:54.748Z,6.75
2022-08-14T00:07:22.543Z,7.13
2022-08-14T00:10:02.011Z,6.65
2022-08-14T00:12:40.466Z,6.68
2022-08-14T00:15:37.470Z,7.32
2022-08-14T00:18:30.574Z,6.97
2022-08-14T00:21:03.221Z,6.53
2022-08-14T00:23:30.938Z,6.63
2022-08-14T00:26:06.530Z,7.13
2022-08-14T00:28:36.779Z,6.80
2022-08-14T00:31:08.042Z,6.68
2022-08-14T00:33:51.167Z,6.65
2022-08-14T00:36:37.589Z,6.75
2022-08-14T00:39:17.784Z,6.18
2022-08-14T00:41:47.613Z,6.18
2022-08-14T00:44:21.393Z,6.35
2022-08-14T00:46:54.626Z,7.07
2022-08-14T00:49:26.253Z,7.07
2022-08-14T00:51:53.747Z,6.90
2022-08-14T00:54:22.229Z,7.00
2022-08-14T00:56:55.201Z,6.45
2022-08-14T00:59:28.808Z,6.22
2022-08-14T01:01:59.966Z,7.57
2022-08-14T01:04:51.822Z,6.18
2022-08-14T01:07:20.788Z,7.05
2022-08-14T01:09:56.160Z,6.18
2022-08-14T01:12:27.137Z,6.80
2022-08-14T01:15:02.112Z,5.97
2022-08-14T01:17:52.406Z,7.57
2022-08-14T01:20:41.180Z,6.80
2022-08-14T01:23:16.659Z,6.35
2022-08-14T01:25:49.120Z,6.18
2022-08-14T01:28:46.562Z,6.82
2022-08-14T01:31:17.927Z,7.10
2022-08-14T01:35:16.563Z,5.85
2022-08-14T01:36:39.582Z,6.25
2022-08-14T01:39:13.803Z,6.30
2022-08-14T01:41:49.219Z,5.80
2022-08-14T01:44:32.089Z,5.60
2022-08-14T01:47:21.695Z,7.20
2022-08-14T01:49:59.790Z,6.25
2022-08-14T01:52:59.310Z,5.82
2022-08-14T01:55:32.377Z,6.20
2022-08-14T01:58:20.361Z,6.28
2022-08-14T02:00:55.110Z,6.30
2022-08-14T02:03:31.881Z,6.40
2022-08-14T02:06:31.848Z,6.13
2022-08-14T02:08:52.891Z,5.00
2022-08-14T02:11:25.135Z,6.22
2022-08-14T02:14:07.226Z,5.85
2022-08-14T02:16:43.374Z,5.68
2022-08-14T02:19:15.353Z,6.05
2022-08-14T02:21:49.094Z,5.72
2022-08-14T02:24:40.102Z,6.35
2022-08-14T02:28:24.817Z,6.65
2022-08-14T02:29:59.744Z,6.18
2022-08-14T02:32:36.964Z,6.00
2022-08-14T02:35:17.502Z,6.40
2022-08-14T02:37:49.697Z,6.45
2022-08-14T02:40:32.425Z,6.50
2022-08-14T02:43:03.923Z,6.40
2022-08-14T02:45:38.191Z,6.25
2022-08-14T02:49:03.283Z,6.70
2022-08-14T02:51:01.194Z,5.90
2022-08-14T02:53:33.469Z,6.50
2022-08-14T02:56:29.723Z,5.78
2022-08-14T02:58:52.102Z,6.05
2022-08-14T03:01:26.259Z,6.20
2022-08-14T03:03:59.061Z,6.60
2022-08-14T03:06:35.153Z,6.38
2022-08-14T03:09:14.757Z,5.65
2022-08-14T03:11:45.023Z,5.70
2022-08-14T03:14:15.513Z,6.10
2022-08-14T03:16:45.502Z,6.10
2022-08-14T03:19:19.745Z,6.10
2022-08-14T03:21:47.104Z,6.10
2022-08-14T03:24:23.028Z,6.30
2022-08-14T03:26:56.257Z,6.10
2022-08-14T03:29:26.222Z,6.18
2022-08-14T03:31:54.690Z,5.93
2022-08-14T03:34:24.951Z,6.32
2022-08-14T03:37:37.816Z,6.38
2022-08-14T03:40:00.482Z,6.07
2022-08-14T03:42:35.778Z,6.30
2022-08-14T03:45:20.330Z,5.90
2022-08-14T03:48:01.569Z,6.13
2022-08-14T03:50:31.426Z,6.57
2022-08-14T03:53:03.525Z,6.60
2022-08-14T03:55:31.451Z,5.97
2022-08-14T03:58:00.427Z,6.68
2022-08-14T04:00:42.973Z,6.40
2022-08-14T04:03:16.723Z,6.43
2022-08-14T04:08:22.698Z,6.40
2022-08-14T04:10:57.517Z,7.05
2022-08-14T04:13:27.690Z,7.80
2022-08-14T04:16:01.298Z,6.35
2022-08-14T04:18:30.567Z,7.18
2022-08-14T04:20:58.187Z,6.88
2022-08-14T04:23:29.975Z,7.18
2022-08-14T04:26:08.362Z,8.07
2022-08-14T04:29:05.460Z,7.00
2022-08-14T04:32:58.455Z,7.15
2022-08-14T04:34:21.020Z,7.35
2022-08-14T04:37:21.972Z,6.22
2022-08-14T04:42:57.545Z,6.88
2022-08-14T04:45:30.559Z,6.88
2022-08-14T04:48:13.041Z,6.63
2022-08-14T04:50:53.953Z,7.35
2022-08-14T04:53:34.951Z,7.43
2022-08-14T04:56:05.774Z,7.00
2022-08-14T04:58:39.108Z,7.30
2022-08-14T05:01:13.047Z,7.57
2022-08-14T05:03:47.000Z,7.07
2022-08-14T05:06:37.292Z,6.95
2022-08-14T05:09:01.328Z,7.28
2022-08-14T05:11:34.605Z,6.57
2022-08-14T05:16:52.224Z,7.22
2022-08-14T05:19:26.683Z,7.10
2022-08-14T05:22:17.605Z,7.28
2022-08-14T05:24:51.239Z,7.03
2022-08-14T05:27:22.691Z,7.47
2022-08-14T05:29:57.004Z,7.40
2022-08-14T05:32:27.594Z,7.70
2022-08-14T05:34:58.269Z,7.60
2022-08-14T05:37:28.077Z,7.90
2022-08-14T05:39:55.666Z,8.25
2022-08-14T05:42:27.100Z,8.05
2022-08-14T05:44:59.928Z,7.13
2022-08-14T05:47:29.129Z,8.15
2022-08-14T05:50:09.640Z,8.73
2022-08-14T05:52:45.052Z,8.82
2022-08-14T05:55:12.379Z,8.52
2022-08-14T05:57:52.495Z,8.27
2022-08-14T06:00:29.335Z,8.30
2022-08-14T06:03:06.917Z,8.10
2022-08-14T06:05:35.376Z,8.95
2022-08-14T06:08:08.799Z,9.52
2022-08-14T06:10:51.318Z,8.95
2022-08-14T06:13:19.582Z,9.32
2022-08-14T06:15:48.302Z,8.90
2022-08-14T06:18:17.580Z,8.88
2022-08-14T06:20:45.424Z,8.90
2022-08-14T06:23:13.667Z,9.30
2022-08-14T06:25:42.179Z,9.18
2022-08-14T06:28:27.495Z,9.52
2022-08-14T06:30:56.751Z,9.18
2022-08-14T06:33:30.045Z,9.75
2022-08-14T06:36:12.428Z,9.43
2022-08-14T06:38:45.929Z,9.60
2022-08-14T06:41:20.633Z,9.65
2022-08-14T06:43:48.733Z,9.73
2022-08-14T06:46:32.527Z,8.65
2022-08-14T06:49:01.604Z,9.68
2022-08-14T06:51:44.475Z,10.38
2022-08-14T06:54:14.979Z,10.23
2022-08-14T06:56:44.179Z,10.02
2022-08-14T06:59:19.553Z,9.73
2022-08-14T07:04:50.834Z,8.75
2022-08-14T07:07:18.418Z,8.77
2022-08-14T07:09:51.144Z,9.57
2022-08-14T07:12:54.538Z,8.57
2022-08-14T07:15:07.107Z,9.38
2022-08-14T07:17:36.289Z,7.90
2022-08-14T07:20:07.392Z,8.52
2022-08-14T07:22:55.920Z,8.63
2022-08-14T07:25:22.586Z,9.50
2022-08-14T07:28:00.535Z,8.80
2022-08-14T07:30:33.767Z,8.80
2022-08-14T07:33:03.609Z,8.65
2022-08-14T07:35:42.904Z,8.93
2022-08-14T07:38:21.469Z,8.55
2022-08-14T07:40:52.804Z,8.48
2022-08-14T07:43:21.701Z,8.60
2022-08-14T07:45:53.776Z,8.50
2022-08-14T07:48:24.860Z,9.00
2022-08-14T07:50:57.227Z,8.35
2022-08-14T07:53:30.815Z,9.75
2022-08-14T07:56:21.363Z,8.40
2022-08-14T07:58:51.587Z,9.57
2022-08-14T08:01:19.934Z,9.40
2022-08-14T08:03:51.866Z,8.70
2022-08-14T08:06:20.171Z,8.98
2022-08-14T08:08:58.860Z,8.88
2022-08-14T08:11:37.129Z,8.63
2022-08-14T08:14:10.727Z,8.87
2022-08-14T08:16:51.149Z,8.68
2022-08-14T08:19:19.307Z,9.20
2022-08-14T08:21:47.662Z,8.55
2022-08-14T08:24:20.165Z,8.40
2022-08-14T08:26:50.623Z,8.80
2022-08-14T08:29:29.288Z,8.68
2022-08-14T08:32:01.390Z,8.88
2022-08-14T08:34:30.363Z,8.00
2022-08-14T08:37:00.849Z,7.63
2022-08-14T08:40:02.813Z,8.02
2022-08-14T08:42:38.817Z,8.13
2022-08-14T08:45:12.119Z,8.48
2022-08-14T08:47:43.215Z,7.63
2022-08-14T08:50:31.601Z,9.05
2022-08-14T08:53:05.238Z,8.10
2022-08-14T08:55:40.284Z,8.25
2022-08-14T08:58:19.807Z,8.35
2022-08-14T09:00:54.862Z,9.07
2022-08-14T09:03:27.480Z,8.40
2022-08-14T09:06:03.106Z,7.90
2022-08-14T09:11:19.214Z,9.23
2022-08-14T09:13:51.637Z,8.77
2022-08-14T09:16:26.008Z,8.13
2022-08-14T09:18:54.726Z,10.00
2022-08-14T09:21:23.869Z,9.60
2022-08-14T09:24:27.985Z,8.20
2022-08-14T09:26:49.413Z,8.82
2022-08-14T09:31:58.221Z,8.57
2022-08-14T09:35:22.496Z,8.43
2022-08-14T09:38:27.478Z,7.88
2022-08-14T09:41:19.797Z,8.18
2022-08-14T09:44:06.750Z,8.88
2022-08-14T09:46:35.404Z,7.65
2022-08-14T09:49:11.978Z,9.30
2022-08-14T09:51:58.596Z,7.90
2022-08-14T09:54:43.243Z,7.95
2022-08-14T09:57:24.103Z,8.23
2022-08-14T09:59:55.419Z,8.15
2022-08-14T10:02:34.490Z,7.60
2022-08-14T10:05:11.759Z,8.25
2022-08-14T10:07:53.813Z,7.90
2022-08-14T10:10:35.994Z,7.90
2022-08-14T10:13:28.048Z,7.85
2022-08-14T10:16:25.979Z,8.50
2022-08-14T10:19:09.350Z,8.90
2022-08-14T10:23:11.060Z,8.32
2022-08-14T10:24:42.103Z,8.07
2022-08-14T10:27:26.617Z,8.52
2022-08-14T10:30:04.431Z,8.68
2022-08-14T10:32:51.710Z,8.05
2022-08-14T10:35:22.975Z,7.75
2022-08-14T10:37:52.916Z,7.80
2022-08-14T10:40:43.799Z,7.50
2022-08-14T10:43:26.210Z,7.28
2022-08-14T10:46:03.561Z,7.93
2022-08-14T10:49:05.010Z,7.57
2022-08-14T10:51:41.902Z,7.53
2022-08-14T10:54:25.897Z,7.97
2022-08-14T10:57:27.652Z,7.65
2022-08-14T11:00:20.889Z,6.95
2022-08-14T11:03:03.284Z,7.43
2022-08-14T11:05:45.310Z,6.95
2022-08-14T11:08:17.794Z,6.70
2022-08-14T11:10:56.677Z,7.53
2022-08-14T11:13:28.860Z,7.18
2022-08-14T11:16:01.017Z,7.60
2022-08-14T11:18:39.898Z,7.15
2022-08-14T11:21:09.664Z,7.30
2022-08-14T11:23:43.858Z,7.22
2022-08-14T11:26:20.583Z,7.43
2022-08-14T11:28:50.143Z,8.10
2022-08-14T11:31:24.078Z,6.80
2022-08-14T11:33:57.177Z,7.28
2022-08-14T11:36:35.491Z,7.63
2022-08-14T11:39:34.521Z,6.70
2022-08-14T11:42:57.282Z,7.50
2022-08-14T11:45:11.337Z,7.53
2022-08-14T11:48:12.861Z,6.90
2022-08-14T11:50:37.034Z,7.70
2022-08-14T11:53:07.900Z,7.13
2022-08-14T11:55:39.333Z,7.53
2022-08-14T11:58:15.750Z,7.25
2022-08-14T12:01:01.888Z,6.75
2022-08-14T12:03:52.380Z,7.00
2022-08-14T12:06:28.908Z,7.05
2022-08-14T12:09:08.886Z,6.45
2022-08-14T12:11:47.626Z,6.47
2022-08-14T12:14:30.118Z,7.38
2022-08-14T12:17:12.868Z,6.80
2022-08-14T12:19:53.799Z,6.60
2022-08-14T12:22:42.173Z,6.50
2022-08-14T12:25:24.549Z,7.07
2022-08-14T12:27:59.141Z,6.55
2022-08-14T12:30:44.614Z,7.32
2022-08-14T12:33:30.456Z,7.47
2022-08-14T12:36:08.441Z,6.35
2022-08-14T12:38:43.394Z,6.85
2022-08-14T12:41:24.074Z,6.88
2022-08-14T12:44:01.967Z,6.68
2022-08-14T12:46:37.568Z,7.15
2022-08-14T12:49:17.729Z,7.03
2022-08-14T12:52:00.289Z,6.97
2022-08-14T12:54:29.199Z,6.53
2022-08-14T12:57:36.993Z,6.30
2022-08-14T13:00:22.529Z,7.10
2022-08-14T13:02:56.537Z,6.38
2022-08-14T13:05:31.319Z,6.85
2022-08-14T13:08:01.333Z,6.97
2022-08-14T13:10:47.300Z,7.18
2022-08-14T13:13:20.671Z,6.43
2022-08-14T13:15:56.283Z,6.95
2022-08-14T13:18:28.063Z,7.22
2022-08-14T13:20:59.735Z,6.70
2022-08-14T13:23:36.074Z,7.10
2022-08-14T13:28:41.331Z,6.03
2022-08-14T13:31:30.059Z,6.72
2022-08-14T13:33:58.548Z,6.93
2022-08-14T13:36:54.401Z,7.68
2022-08-14T13:39:17.493Z,6.32
2022-08-14T13:41:46.127Z,6.05
2022-08-14T13:44:25.438Z,6.22
2022-08-14T13:46:53.502Z,6.75
2022-08-14T13:49:21.197Z,6.65
2022-08-14T13:51:58.817Z,6.70
2022-08-14T13:54:32.773Z,6.70
2022-08-14T13:57:03.760Z,5.78
2022-08-14T13:59:37.811Z,6.55
2022-08-14T14:02:07.879Z,6.38
2022-08-14T14:04:46.385Z,6.32
2022-08-14T14:07:21.876Z,6.03
2022-08-14T14:09:55.245Z,6.55
2022-08-14T14:12:38.282Z,5.53
2022-08-14T14:15:18.276Z,6.65
2022-08-14T14:17:51.091Z,6.15
2022-08-14T14:20:34.537Z,5.63
2022-08-14T14:23:09.542Z,5.63
2022-08-14T14:25:46.426Z,5.75
2022-08-14T14:28:24.194Z,5.93
2022-08-14T14:30:57.167Z,5.65
2022-08-14T14:33:47.134Z,5.68
2022-08-14T14:36:26.597Z,5.65
2022-08-14T14:39:06.991Z,5.95
2022-08-14T14:41:43.809Z,5.22
2022-08-14T14:44:13.534Z,5.10
2022-08-14T14:46:50.179Z,6.00
2022-08-14T14:49:21.557Z,7.72
2022-08-14T14:51:51.390Z,5.85
2022-08-14T14:54:32.140Z,5.53
2022-08-14T14:57:09.228Z,5.75
2022-08-14T14:59:37.528Z,5.15
2022-08-14T15:02:09.163Z,5.70
2022-08-14T15:04:43.659Z,5.18
2022-08-14T15:07:12.558Z,5.30
2022-08-14T15:09:41.135Z,5.97
2022-08-14T15:12:16.069Z,5.63
2022-08-14T15:14:58.023Z,5.57
2022-08-14T15:17:41.298Z,5.50
2022-08-14T15:20:17.197Z,4.97
2022-08-14T15:22:57.414Z,5.60
2022-08-14T15:25:24.835Z,5.07
2022-08-14T15:27:54.720Z,5.45
2022-08-14T15:30:23.605Z,4.65
2022-08-14T15:32:53.263Z,5.03
2022-08-14T15:35:25.612Z,4.85
2022-08-14T15:37:55.529Z,5.15
2022-08-14T15:40:24.268Z,5.05
2022-08-14T15:42:51.976Z,5.20
2022-08-14T15:45:20.358Z,5.32
2022-08-14T15:47:51.725Z,5.00
2022-08-14T15:50:19.454Z,5.57
2022-08-14T15:52:47.134Z,5.30
2022-08-14T15:55:15.880Z,6.07
2022-08-14T15:58:02.449Z,4.88
2022-08-14T16:01:26.443Z,5.60
2022-08-14T16:04:01.395Z,5.15
2022-08-14T16:06:30.591Z,5.35
2022-08-14T16:09:03.449Z,7.32
2022-08-14T16:11:38.632Z,8.82
2022-08-14T16:14:14.733Z,8.70
2022-08-14T16:16:59.734Z,5.20
2022-08-14T16:22:58.758Z,8.00
2022-08-14T16:25:09.149Z,8.60
2022-08-14T16:27:40.965Z,6.18
2022-08-14T16:30:24.829Z,5.40
2022-08-14T16:32:59.078Z,5.07
2022-08-14T16:35:42.984Z,5.22
2022-08-14T16:38:19.599Z,5.05
2022-08-14T16:40:23.885Z,9.50
2022-08-14T16:41:22.949Z,5.68
2022-08-14T16:44:01.067Z,5.50
2022-08-14T16:46:32.557Z,5.05
2022-08-14T16:49:04.718Z,5.63
2022-08-14T16:51:38.633Z,5.22
2022-08-14T16:54:20.667Z,4.85
2022-08-14T16:57:22.573Z,5.18
2022-08-14T16:59:57.569Z,4.80
2022-08-14T17:02:40.310Z,4.50
2022-08-14T17:05:20.891Z,4.35
2022-08-14T17:08:32.053Z,4.53
2022-08-14T17:10:56.032Z,4.55
2022-08-14T17:13:59.935Z,5.00
2022-08-14T17:16:24.645Z,5.03
2022-08-14T17:19:00.834Z,4.88
2022-08-14T17:21:41.712Z,5.10
2022-08-14T17:24:58.363Z,5.35
2022-08-14T17:27:03.620Z,5.05
2022-08-14T17:29:44.893Z,4.35
2022-08-14T17:35:16.613Z,5.00
2022-08-14T17:37:55.943Z,4.55
2022-08-14T17:40:29.593Z,4.60
2022-08-14T17:43:01.893Z,5.15
2022-08-14T17:45:40.995Z,4.07
2022-08-14T17:49:14.088Z,4.68
2022-08-14T17:51:23.986Z,5.03
2022-08-14T17:54:02.967Z,5.00
2022-08-14T17:56:34.116Z,4.90
2022-08-14T17:59:06.997Z,5.55
2022-08-14T18:01:45.854Z,5.00
2022-08-14T18:04:24.817Z,5.35
2022-08-14T18:07:16.433Z,4.80
2022-08-14T18:09:59.088Z,4.97
2022-08-14T18:12:36.703Z,5.18
2022-08-14T18:15:16.070Z,4.75
2022-08-14T18:17:53.051Z,5.47
2022-08-14T18:21:41.767Z,5.55
2022-08-14T18:23:13.823Z,5.22
2022-08-14T18:25:54.869Z,5.50
2022-08-14T18:28:51.840Z,5.72
2022-08-14T18:31:22.891Z,5.93
2022-08-14T18:34:30.832Z,5.70
2022-08-14T18:37:14.384Z,5.55
2022-08-14T18:40:02.036Z,5.75
2022-08-14T18:42:34.955Z,5.65
2022-08-14T18:45:12.751Z,5.55
2022-08-14T18:50:32.422Z,5.82
2022-08-14T18:53:10.836Z,6.25
2022-08-14T18:55:53.433Z,5.38
2022-08-14T18:58:31.183Z,5.45
2022-08-14T19:01:04.647Z,5.75
2022-08-14T19:03:39.056Z,6.15
2022-08-14T19:06:09.036Z,6.13
2022-08-14T19:08:47.982Z,5.30
2022-08-14T19:11:37.018Z,5.72
2022-08-14T19:14:07.002Z,5.45
2022-08-14T19:16:42.745Z,5.57
2022-08-14T19:19:12.595Z,6.40
2022-08-14T19:21:55.936Z,5.78
2022-08-14T19:24:44.311Z,5.95
2022-08-14T19:27:24.467Z,5.43
2022-08-14T19:30:19.356Z,5.53
2022-08-14T19:32:53.201Z,5.60
2022-08-14T19:35:49.925Z,5.65
2022-08-14T19:38:45.266Z,5.85
2022-08-14T19:41:19.544Z,5.80
2022-08-14T19:43:56.215Z,5.78
2022-08-14T19:46:38.849Z,5.95
2022-08-14T19:49:23.311Z,5.68
2022-08-14T19:52:05.441Z,5.20
2022-08-14T19:54:50.560Z,5.70
2022-08-14T19:57:31.359Z,6.05
2022-08-14T20:00:28.484Z,6.22
2022-08-14T20:03:11.279Z,5.57
2022-08-14T20:05:45.909Z,6.13
2022-08-14T20:09:05.560Z,6.47
2022-08-14T20:12:02.093Z,6.57
2022-08-14T20:14:20.915Z,6.32
2022-08-14T20:17:06.291Z,5.90
2022-08-14T20:19:37.379Z,6.97
2022-08-14T20:22:36.311Z,6.18
2022-08-14T20:24:54.565Z,6.32
2022-08-14T20:27:24.952Z,6.57
2022-08-14T20:30:33.464Z,6.68
2022-08-14T20:33:11.082Z,6.45
2022-08-14T20:35:49.420Z,6.07
2022-08-14T20:38:31.684Z,6.50
2022-08-14T20:41:05.672Z,5.82
2022-08-14T20:43:57.974Z,6.15
2022-08-14T20:46:39.001Z,6.63
2022-08-14T20:49:18.818Z,6.88
2022-08-14T20:51:59.383Z,6.57
2022-08-14T20:54:34.643Z,6.57
2022-08-14T20:57:15.596Z,6.45
2022-08-14T20:59:53.524Z,6.68
2022-08-14T21:02:34.378Z,8.02
2022-08-14T21:05:16.824Z,7.03
2022-08-14T21:07:50.497Z,7.03
2022-08-14T21:10:33.278Z,7.13
2022-08-14T21:13:26.725Z,7.32
2022-08-14T21:15:57.101Z,7.72
2022-08-14T21:18:47.639Z,7.28
2022-08-14T21:21:22.422Z,8.63
2022-08-14T21:23:55.829Z,7.90
2022-08-14T21:26:50.521Z,7.13
2022-08-14T21:29:21.636Z,6.82
2022-08-14T21:31:55.983Z,7.78
2022-08-14T21:34:27.110Z,6.63
2022-08-14T21:36:58.236Z,6.90
2022-08-14T21:39:25.462Z,7.35
2022-08-14T21:41:58.444Z,7.32
2022-08-14T21:44:42.832Z,8.05
2022-08-14T21:47:13.265Z,7.53
2022-08-14T21:49:46.323Z,7.38
2022-08-14T21:52:51.048Z,7.28
2022-08-14T21:55:12.251Z,8.13
2022-08-14T21:58:45.788Z,8.60
2022-08-14T22:00:42.030Z,7.05
2022-08-14T22:03:17.138Z,7.85
2022-08-14T22:05:52.160Z,7.05
2022-08-14T22:08:22.518Z,7.28
2022-08-14T22:10:56.485Z,8.00
2022-08-14T22:13:26.829Z,8.27
2022-08-14T22:16:02.053Z,7.75
2022-08-14T22:18:30.343Z,7.03
2022-08-14T22:20:58.531Z,6.78
2022-08-14T22:23:26.499Z,7.25
2022-08-14T22:25:55.482Z,7.20
2022-08-14T22:28:33.235Z,7.25
2022-08-14T22:31:23.016Z,7.38
2022-08-14T22:33:57.757Z,6.60
2022-08-14T22:36:45.270Z,7.28
2022-08-14T22:39:13.253Z,6.95
2022-08-14T22:41:43.555Z,7.00
2022-08-14T22:44:31.677Z,6.53
2022-08-14T22:47:00.262Z,7.85
2022-08-14T22:50:28.874Z,7.93
2022-08-14T22:52:32.995Z,7.38
2022-08-14T22:55:01.823Z,7.05
2022-08-14T22:57:37.782Z,6.53
2022-08-14T23:00:25.653Z,7.13
2022-08-14T23:03:03.006Z,6.40
2022-08-14T23:05:38.947Z,6.72
2022-08-14T23:08:56.479Z,7.05
2022-08-14T23:10:59.721Z,6.82
2022-08-14T23:13:26.839Z,7.50
2022-08-14T23:16:04.304Z,6.40
2022-08-14T23:18:31.416Z,6.75
2022-08-14T23:20:58.904Z,7.15
2022-08-14T23:23:26.174Z,7.55
2022-08-14T23:26:00.109Z,7.15
2022-08-14T23:28:56.610Z,7.18
2022-08-14T23:31:34.933Z,6.90
2022-08-14T23:34:07.603Z,7.50
2022-08-14T23:36:53.556Z,7.13
2022-08-14T23:39:32.612Z,7.78
2022-08-14T23:42:09.360Z,7.80
2022-08-14T23:44:38.987Z,8.23
2022-08-14T23:47:11.598Z,8.25
2022-08-14T23:50:00.162Z,7.72
2022-08-14T23:52:55.804Z,7.57
2022-08-14T23:55:22.798Z,8.57
2022-08-14T23:57:58.313Z,8.95
